Terminal Aerodrome Forecast
Issued by NWS Shreveport, LA

Current Version | Previous Version | Text Only | Print | Product List | Glossary On
Versions: 1 2 3 4 5 6 7 8 9 10 11 12 13 14
635
FTUS44 KSHV 202358
TAFGGG
TAF
KGGG 202358Z 2100/2124 15014KT P6SM SCT030 BKN045 OVC070
     FM210200 14010KT P6SM BKN040
     FM210500 16009KT P6SM BKN020 OVC040
      TEMPO 2109/2112 -SHRA BKN008 OVC010
     FM211200 17012KT P6SM BKN008 OVC025
     FM211500 17013G18KT P6SM BKN010 OVC025
     FM211800 18013G20KT P6SM OVC025
     FM212100 18013G20KT P6SM BKN050=

USA.gov is the U.S. government's official web portal to all federal, state and local government web resources and services.